Time;durP1;ratioP1;P1;durP2;ratioP2;P2;SDS_P1;SDS_P2;PMS_P1;PMS_P2;Temp;Humidity;BMP_temperature;BMP_pressure;BME280_temperature;BME280_humidity;BME280_pressure;Samples;Min_cycle;Max_cycle;Signal;HPM_P1;HPM_P2
2022/09/17 00:01:27;;;;;;;2.07;1.43;;;10.70;99.90;;;;;;5051844;28;20448;-66
2022/09/17 00:03:59;;;;;;;1.10;1.00;;;10.70;99.90;;;;;;5051737;28;20463;-65
2022/09/17 00:06:26;;;;;;;2.00;1.23;;;10.70;99.90;;;;;;5051963;28;20859;-65
2022/09/17 00:08:53;;;;;;;1.10;1.00;;;10.70;99.90;;;;;;5051177;28;20802;-66
2022/09/17 00:11:23;;;;;;;3.00;0.83;;;10.70;99.90;;;;;;5052010;28;20463;-66
2022/09/17 00:13:51;;;;;;;2.20;1.37;;;10.70;99.90;;;;;;5051715;28;20456;-66
2022/09/17 00:16:24;;;;;;;1.40;1.10;;;10.70;99.90;;;;;;5052145;28;20551;-66
2022/09/17 00:18:51;;;;;;;3.00;1.10;;;10.70;99.90;;;;;;5052106;28;20807;-66
2022/09/17 00:21:20;;;;;;;4.70;1.30;;;10.70;99.90;;;;;;5051721;28;20456;-67
2022/09/17 00:23:47;;;;;;;1.83;1.20;;;10.70;99.90;;;;;;5051695;28;20935;-66
2022/09/17 00:26:14;;;;;;;1.73;1.00;;;10.70;99.90;;;;;;5051760;28;20492;-66
2022/09/17 00:28:44;;;;;;;2.53;1.50;;;10.70;99.90;;;;;;5051705;28;20444;-66
2022/09/17 00:31:11;;;;;;;5.70;1.90;;;10.80;99.90;;;;;;5051648;28;20455;-66
2022/09/17 00:33:38;;;;;;;2.50;1.50;;;10.90;99.90;;;;;;5051046;28;20471;-66
2022/09/17 00:36:05;;;;;;;3.43;1.50;;;10.90;99.90;;;;;;5051249;28;20452;-66
2022/09/17 00:38:34;;;;;;;1.60;1.23;;;10.90;99.90;;;;;;5051395;28;20460;-67
2022/09/17 00:41:01;;;;;;;1.60;1.20;;;10.90;99.90;;;;;;5051331;28;20453;-66
2022/09/17 00:43:35;;;;;;;2.70;1.10;;;11.00;99.90;;;;;;5051012;28;20498;-66
2022/09/17 00:46:03;;;;;;;1.60;1.23;;;11.00;99.90;;;;;;5051165;28;20451;-66
2022/09/17 00:48:30;;;;;;;1.90;1.10;;;11.00;99.90;;;;;;5051359;28;20455;-66
2022/09/17 00:51:01;;;;;;;2.27;1.27;;;11.00;99.90;;;;;;5051558;28;20471;-66
2022/09/17 00:53:29;;;;;;;2.90;1.50;;;10.90;99.90;;;;;;5050746;28;20479;-67
2022/09/17 00:56:01;;;;;;;1.23;1.13;;;10.90;99.90;;;;;;5051164;28;20475;-67
2022/09/17 00:58:30;;;;;;;3.37;1.53;;;10.80;99.90;;;;;;5051037;28;20722;-66
2022/09/17 01:00:57;;;;;;;3.83;1.40;;;10.70;99.90;;;;;;5050805;28;20830;-67
2022/09/17 01:03:23;;;;;;;3.00;1.37;;;10.60;99.90;;;;;;5050712;28;20472;-66
2022/09/17 01:06:01;;;;;;;2.87;1.80;;;10.50;99.90;;;;;;5051000;28;20448;-65
2022/09/17 01:08:37;;;;;;;3.10;1.57;;;10.40;99.90;;;;;;5051353;28;20447;-67
2022/09/17 01:11:19;;;;;;;1.50;1.40;;;10.40;99.90;;;;;;5050947;28;20802;-66
2022/09/17 01:13:57;;;;;;;1.77;1.60;;;10.30;99.90;;;;;;5050825;28;20454;-67
2022/09/17 01:16:34;;;;;;;1.73;1.60;;;10.30;99.90;;;;;;5050965;28;20452;-67
2022/09/17 01:19:12;;;;;;;1.67;1.40;;;10.20;99.90;;;;;;5050174;28;20454;-65
2022/09/17 01:21:51;;;;;;;2.53;1.77;;;10.20;99.90;;;;;;5050453;28;20472;-67
2022/09/17 01:24:46;;;;;;;2.17;1.73;;;10.20;99.90;;;;;;5050452;28;20470;-65
2022/09/17 01:27:41;;;;;;;2.47;1.60;;;10.20;99.90;;;;;;5050673;28;20613;-67
2022/09/17 01:30:17;;;;;;;2.23;1.60;;;10.20;99.90;;;;;;5049621;28;20532;-66
2022/09/17 01:32:50;;;;;;;4.00;1.70;;;10.20;99.90;;;;;;5050155;28;20472;-68
2022/09/17 01:35:21;;;;;;;2.37;2.00;;;10.20;99.90;;;;;;5050710;28;20521;-66
2022/09/17 01:37:58;;;;;;;2.10;1.67;;;10.30;99.90;;;;;;5050565;28;20444;-66
2022/09/17 01:40:28;;;;;;;3.33;2.00;;;10.30;99.90;;;;;;5050744;28;20439;-66
2022/09/17 01:43:04;;;;;;;1.77;1.50;;;10.30;99.90;;;;;;5050164;28;20475;-68
2022/09/17 01:45:38;;;;;;;1.67;1.40;;;10.30;99.90;;;;;;5050445;28;20790;-66
2022/09/17 01:48:10;;;;;;;2.37;1.80;;;10.40;99.90;;;;;;5050256;28;20479;-66
2022/09/17 01:50:42;;;;;;;3.67;1.83;;;10.40;99.90;;;;;;5050209;28;20808;-66
2022/09/17 01:53:11;;;;;;;1.73;1.30;;;10.40;99.90;;;;;;5049732;28;20472;-66
2022/09/17 01:55:40;;;;;;;2.77;1.63;;;10.40;99.90;;;;;;5050459;28;20905;-66
2022/09/17 01:58:13;;;;;;;3.87;1.70;;;10.50;99.90;;;;;;5050141;28;20444;-66
2022/09/17 02:00:42;;;;;;;1.60;1.50;;;10.50;99.90;;;;;;5049983;28;20451;-65
2022/09/17 02:03:17;;;;;;;3.10;1.70;;;10.40;99.90;;;;;;5049832;28;20475;-66
2022/09/17 02:05:48;;;;;;;1.87;1.53;;;10.50;99.90;;;;;;5044242;28;20443;-65
2022/09/17 02:08:18;;;;;;;4.87;1.80;;;10.50;99.90;;;;;;5050079;28;20487;-65
2022/09/17 02:10:50;;;;;;;2.00;1.80;;;10.50;99.90;;;;;;5050367;28;20448;-65
2022/09/17 02:13:20;;;;;;;2.87;1.80;;;10.50;99.90;;;;;;5049614;28;20472;-66
2022/09/17 02:15:51;;;;;;;4.27;1.73;;;10.40;99.90;;;;;;5049798;28;20455;-66
2022/09/17 02:18:26;;;;;;;1.40;1.30;;;10.40;99.90;;;;;;5049713;28;20814;-65
2022/09/17 02:21:02;;;;;;;4.83;2.00;;;10.40;99.90;;;;;;5049826;28;20466;-67
2022/09/17 02:23:34;;;;;;;2.53;1.50;;;10.40;99.90;;;;;;5049377;28;20544;-66
2022/09/17 02:26:07;;;;;;;2.50;1.73;;;10.30;99.90;;;;;;5049609;28;20464;-65
2022/09/17 02:28:40;;;;;;;1.70;1.60;;;10.30;99.90;;;;;;5049669;28;20831;-65
2022/09/17 02:31:07;;;;;;;6.73;1.97;;;10.30;99.90;;;;;;5047375;28;20452;-65
2022/09/17 02:33:37;;;;;;;2.20;1.53;;;10.30;99.90;;;;;;5049144;28;20992;-65
2022/09/17 02:36:05;;;;;;;5.03;1.70;;;10.20;99.90;;;;;;5049471;28;20456;-65
2022/09/17 02:38:31;;;;;;;3.17;1.33;;;10.20;99.90;;;;;;5049383;28;20858;-65
2022/09/17 02:41:08;;;;;;;1.93;1.60;;;10.20;99.90;;;;;;5049745;28;20455;-66
2022/09/17 02:43:45;;;;;;;2.60;1.53;;;10.20;99.90;;;;;;5049189;28;20460;-67
2022/09/17 02:46:28;;;;;;;3.10;1.90;;;10.10;99.90;;;;;;5049499;28;20451;-66
2022/09/17 02:49:16;;;;;;;5.03;2.00;;;10.10;99.90;;;;;;5049391;28;20807;-64
2022/09/17 02:51:53;;;;;;;2.57;1.50;;;10.20;99.90;;;;;;5048953;28;21068;-66
2022/09/17 02:54:27;;;;;;;3.33;1.60;;;10.20;99.90;;;;;;5049238;28;20458;-65
2022/09/17 02:57:05;;;;;;;2.30;1.57;;;10.20;99.90;;;;;;5049357;28;20456;-65
2022/09/17 02:59:41;;;;;;;3.60;1.90;;;10.30;99.90;;;;;;5048933;28;20448;-65
2022/09/17 03:02:17;;;;;;;2.87;1.93;;;10.30;99.90;;;;;;5047430;28;20985;-67
2022/09/17 03:04:47;;;;;;;1.87;1.40;;;10.30;99.90;;;;;;5049318;28;20814;-65
2022/09/17 03:07:14;;;;;;;1.97;1.70;;;10.30;99.90;;;;;;5049168;28;20487;-66
2022/09/17 03:09:42;;;;;;;2.00;1.50;;;10.30;99.90;;;;;;5049658;28;20459;-65
2022/09/17 03:12:09;;;;;;;3.00;1.80;;;10.30;99.90;;;;;;5048755;28;20910;-64
2022/09/17 03:14:35;;;;;;;3.17;1.80;;;10.30;99.90;;;;;;5049058;28;20939;-66
2022/09/17 03:17:02;;;;;;;4.47;1.73;;;10.30;99.90;;;;;;5049179;28;20452;-66
2022/09/17 03:19:29;;;;;;;3.97;1.87;;;10.30;99.90;;;;;;5049088;28;20452;-66
2022/09/17 03:21:57;;;;;;;3.33;1.60;;;10.30;99.90;;;;;;5048831;28;20844;-65
2022/09/17 03:24:24;;;;;;;2.40;1.63;;;10.20;99.90;;;;;;5048968;28;20647;-66
2022/09/17 03:26:51;;;;;;;1.83;1.60;;;10.10;99.90;;;;;;5049263;28;20443;-66
2022/09/17 03:29:18;;;;;;;3.00;1.43;;;10.00;99.90;;;;;;5048887;28;20900;-66
2022/09/17 03:31:44;;;;;;;3.23;1.70;;;10.00;99.90;;;;;;5048603;28;20469;-67
2022/09/17 03:34:11;;;;;;;3.27;2.00;;;10.00;99.90;;;;;;5048960;28;20439;-65
2022/09/17 03:36:38;;;;;;;5.60;2.10;;;10.00;99.90;;;;;;5048798;28;20444;-66
2022/09/17 03:39:06;;;;;;;5.80;1.73;;;10.00;99.90;;;;;;5048809;28;20455;-68
2022/09/17 03:41:33;;;;;;;2.10;1.57;;;10.00;99.90;;;;;;5049094;28;20460;-67
2022/09/17 03:43:59;;;;;;;6.93;2.10;;;9.90;99.90;;;;;;5051843;28;20454;-65
2022/09/17 03:46:26;;;;;;;2.63;1.70;;;9.90;99.90;;;;;;5052752;28;20454;-65
2022/09/17 03:48:53;;;;;;;4.03;2.27;;;9.80;99.90;;;;;;5052280;28;20625;-68
2022/09/17 03:51:20;;;;;;;2.60;1.57;;;9.70;99.90;;;;;;5052405;28;20454;-66
2022/09/17 03:53:47;;;;;;;4.17;1.70;;;9.70;99.90;;;;;;5052129;28;20822;-65
2022/09/17 03:56:16;;;;;;;3.53;1.80;;;9.70;99.90;;;;;;5052636;28;20463;-64
2022/09/17 03:58:42;;;;;;;5.30;1.70;;;9.60;99.90;;;;;;5052760;28;20448;-66
2022/09/17 04:01:09;;;;;;;7.10;1.83;;;9.70;99.90;;;;;;5052395;28;20454;-68
2022/09/17 04:03:36;;;;;;;3.10;1.80;;;9.60;99.90;;;;;;5052194;28;20476;-66
2022/09/17 04:06:03;;;;;;;4.13;2.27;;;9.70;99.90;;;;;;5052312;28;20463;-64
2022/09/17 04:08:29;;;;;;;2.50;2.00;;;9.70;99.90;;;;;;5051936;28;20864;-66
2022/09/17 04:10:56;;;;;;;3.67;2.10;;;9.70;99.90;;;;;;5052453;28;20858;-66
2022/09/17 04:13:24;;;;;;;4.70;1.80;;;9.70;99.90;;;;;;5051931;28;20834;-65
2022/09/17 04:15:51;;;;;;;5.47;2.00;;;9.80;99.90;;;;;;5052117;28;20451;-65
2022/09/17 04:18:18;;;;;;;4.50;1.80;;;9.80;99.90;;;;;;5051940;28;20550;-65
2022/09/17 04:20:45;;;;;;;3.13;1.80;;;9.70;99.90;;;;;;5052380;28;20452;-66
2022/09/17 04:23:12;;;;;;;4.13;2.13;;;9.70;99.90;;;;;;5051470;28;20660;-66
2022/09/17 04:25:39;;;;;;;3.57;2.20;;;9.70;99.90;;;;;;5051928;28;20464;-65
2022/09/17 04:28:06;;;;;;;2.83;2.23;;;9.70;99.90;;;;;;5051459;28;20491;-67
2022/09/17 04:30:34;;;;;;;2.47;1.60;;;9.80;99.90;;;;;;5051445;28;20455;-66
2022/09/17 04:33:01;;;;;;;3.60;2.10;;;9.90;99.90;;;;;;5051084;28;21060;-65
2022/09/17 04:35:28;;;;;;;3.83;2.00;;;9.90;99.90;;;;;;5051388;28;20451;-66
2022/09/17 04:37:56;;;;;;;2.37;1.83;;;10.00;99.90;;;;;;5051751;28;20463;-67
2022/09/17 04:40:24;;;;;;;3.53;1.73;;;10.10;99.90;;;;;;5051547;28;20455;-66
2022/09/17 04:42:52;;;;;;;3.00;1.93;;;10.10;99.90;;;;;;5051216;28;20463;-67
2022/09/17 04:45:19;;;;;;;4.17;2.20;;;10.10;99.90;;;;;;5051536;28;20455;-66
2022/09/17 04:47:49;;;;;;;6.37;2.20;;;10.10;99.90;;;;;;5051316;28;20860;-65
2022/09/17 04:50:16;;;;;;;5.80;3.03;;;10.20;99.90;;;;;;5051163;28;20506;-66
2022/09/17 04:52:43;;;;;;;4.00;2.50;;;10.20;99.90;;;;;;5050795;28;20554;-66
2022/09/17 04:55:10;;;;;;;6.73;2.27;;;10.20;99.90;;;;;;5050975;28;20448;-66
2022/09/17 04:57:37;;;;;;;6.03;2.03;;;10.20;99.90;;;;;;5051287;28;20450;-65
2022/09/17 05:00:06;;;;;;;2.27;2.07;;;10.20;99.90;;;;;;5051167;28;20448;-66
2022/09/17 05:02:33;;;;;;;6.73;2.13;;;10.30;99.90;;;;;;5050366;28;21323;-67
2022/09/17 05:05:01;;;;;;;5.40;2.37;;;10.30;99.90;;;;;;5051263;28;20452;-66
2022/09/17 05:07:27;;;;;;;3.83;2.77;;;10.30;99.90;;;;;;5051122;28;20529;-66
2022/09/17 05:09:54;;;;;;;7.90;3.43;;;10.30;99.90;;;;;;5051127;28;20823;-66
2022/09/17 05:12:21;;;;;;;6.10;2.90;;;10.30;99.90;;;;;;5050396;28;20468;-65
2022/09/17 05:14:48;;;;;;;4.07;2.30;;;10.30;99.90;;;;;;5050921;28;20444;-66
2022/09/17 05:17:14;;;;;;;2.17;1.83;;;10.30;99.90;;;;;;5050604;28;20527;-65
2022/09/17 05:19:41;;;;;;;5.50;2.17;;;10.20;99.90;;;;;;5050897;28;20486;-66
2022/09/17 05:22:09;;;;;;;3.10;2.37;;;10.20;99.90;;;;;;5050418;28;20674;-67
2022/09/17 05:24:38;;;;;;;5.03;2.63;;;10.10;99.90;;;;;;5050629;28;20463;-66
2022/09/17 05:27:05;;;;;;;3.70;2.50;;;10.00;99.90;;;;;;5050635;28;20448;-65
2022/09/17 05:29:32;;;;;;;5.77;2.80;;;10.00;99.90;;;;;;5050308;28;20484;-66
2022/09/17 05:31:58;;;;;;;2.57;2.37;;;10.00;99.90;;;;;;5049998;28;20487;-65
2022/09/17 05:34:25;;;;;;;6.03;2.87;;;9.90;99.90;;;;;;5050495;28;20482;-66
2022/09/17 05:36:52;;;;;;;2.50;2.20;;;9.90;99.90;;;;;;5050492;28;20478;-67
2022/09/17 05:39:24;;;;;;;5.00;2.93;;;9.90;99.90;;;;;;5050569;28;20456;-66
2022/09/17 05:41:50;;;;;;;6.50;2.73;;;9.90;99.90;;;;;;5050079;28;20490;-67
2022/09/17 05:44:17;;;;;;;8.13;2.43;;;9.90;99.90;;;;;;5050319;28;20836;-66
2022/09/17 05:46:44;;;;;;;4.37;2.40;;;9.90;99.90;;;;;;5050618;28;20470;-68
2022/09/17 05:49:11;;;;;;;4.40;2.70;;;9.90;99.90;;;;;;5050446;28;20492;-65
2022/09/17 05:51:38;;;;;;;4.43;2.60;;;10.00;99.90;;;;;;5050366;28;20480;-68
2022/09/17 05:54:05;;;;;;;8.90;2.90;;;10.00;99.90;;;;;;5050172;28;20455;-66
2022/09/17 05:56:33;;;;;;;6.23;2.70;;;10.10;99.90;;;;;;5050303;28;20471;-65
2022/09/17 05:59:00;;;;;;;4.20;2.80;;;10.10;99.90;;;;;;5050198;28;20460;-65
2022/09/17 06:01:27;;;;;;;5.10;2.30;;;10.20;99.90;;;;;;5049932;28;20467;-66
2022/09/17 06:03:54;;;;;;;3.47;2.50;;;10.30;99.90;;;;;;5049789;28;20451;-65
2022/09/17 06:06:21;;;;;;;4.77;2.90;;;10.40;99.90;;;;;;5049432;28;20447;-67
2022/09/17 06:08:47;;;;;;;8.97;2.20;;;10.40;99.90;;;;;;5049847;28;20525;-65
2022/09/17 06:11:14;;;;;;;3.80;2.37;;;10.50;99.90;;;;;;5049808;28;20447;-65
2022/09/17 06:13:43;;;;;;;3.50;2.57;;;10.50;99.90;;;;;;5049487;28;20479;-67
2022/09/17 06:16:10;;;;;;;3.83;2.77;;;10.50;99.90;;;;;;5049909;28;20444;-66
2022/09/17 06:18:36;;;;;;;3.70;2.70;;;10.50;99.90;;;;;;5049769;28;20455;-66
2022/09/17 06:21:04;;;;;;;4.37;2.80;;;10.50;99.90;;;;;;5049731;28;20459;-65
2022/09/17 06:23:34;;;;;;;3.20;2.90;;;10.50;99.90;;;;;;5049176;28;20472;-66
2022/09/17 06:26:02;;;;;;;5.30;2.50;;;10.50;99.90;;;;;;5049725;28;20474;-66
2022/09/17 06:28:29;;;;;;;4.57;2.90;;;10.60;99.90;;;;;;5050238;28;20492;-67
2022/09/17 06:31:02;;;;;;;3.20;2.73;;;10.70;99.90;;;;;;5050293;28;20451;-66
2022/09/17 06:33:29;;;;;;;3.40;2.40;;;10.80;99.90;;;;;;5049979;28;20475;-66
2022/09/17 06:35:59;;;;;;;4.90;2.50;;;10.80;99.90;;;;;;5049411;28;20469;-66
2022/09/17 06:38:25;;;;;;;3.70;3.10;;;10.80;99.90;;;;;;5049348;28;20452;-67
2022/09/17 06:40:53;;;;;;;5.27;2.50;;;11.00;99.90;;;;;;5049550;28;20471;-68
2022/09/17 06:43:20;;;;;;;3.60;2.50;;;11.00;99.90;;;;;;5049044;28;20468;-66
2022/09/17 06:45:51;;;;;;;3.80;2.60;;;11.00;99.90;;;;;;5049162;28;20452;-67
2022/09/17 06:48:20;;;;;;;3.87;2.50;;;11.00;99.90;;;;;;5049065;28;20483;-64
2022/09/17 06:50:47;;;;;;;4.77;2.43;;;11.10;99.90;;;;;;5049155;28;20455;-66
2022/09/17 06:53:14;;;;;;;3.37;2.60;;;11.10;99.90;;;;;;5048419;28;21029;-68
2022/09/17 06:55:40;;;;;;;6.23;2.93;;;11.00;99.90;;;;;;5049175;28;20456;-66
2022/09/17 06:58:07;;;;;;;4.47;2.80;;;11.00;99.90;;;;;;5049309;28;20451;-66
2022/09/17 07:00:35;;;;;;;6.30;3.20;;;10.90;99.90;;;;;;5049161;28;20452;-66
2022/09/17 07:03:02;;;;;;;7.83;3.70;;;10.80;99.90;;;;;;5048889;28;20930;-65
2022/09/17 07:05:31;;;;;;;5.00;3.20;;;10.70;99.90;;;;;;5049088;28;20470;-65
2022/09/17 07:08:01;;;;;;;5.20;2.77;;;10.60;99.90;;;;;;5049066;28;20452;-67
2022/09/17 07:10:27;;;;;;;6.20;2.80;;;10.50;99.90;;;;;;5049354;28;20470;-68
2022/09/17 07:12:54;;;;;;;8.07;2.80;;;10.50;99.90;;;;;;5048789;28;20499;-67
2022/09/17 07:15:21;;;;;;;6.07;3.20;;;10.50;99.90;;;;;;5049018;28;20930;-65
2022/09/17 07:17:48;;;;;;;6.03;3.17;;;10.60;99.90;;;;;;5051862;28;20992;-66
2022/09/17 07:20:15;;;;;;;4.53;3.47;;;10.60;99.90;;;;;;5052883;28;20949;-65
2022/09/17 07:22:43;;;;;;;5.47;3.40;;;10.60;99.90;;;;;;5052652;28;20464;-67
2022/09/17 07:25:11;;;;;;;4.50;3.73;;;10.60;99.90;;;;;;5052984;28;20486;-67
2022/09/17 07:27:38;;;;;;;3.90;3.10;;;10.40;99.90;;;;;;5052727;28;20444;-65
2022/09/17 07:30:05;;;;;;;3.97;3.57;;;10.30;99.90;;;;;;5052414;28;20479;-66
2022/09/17 07:32:32;;;;;;;6.43;4.03;;;10.30;99.90;;;;;;5052135;28;20471;-66
2022/09/17 07:34:59;;;;;;;3.97;3.63;;;10.20;99.90;;;;;;5052721;28;20456;-66
2022/09/17 07:37:26;;;;;;;4.90;3.40;;;10.10;99.90;;;;;;5052703;28;20477;-65
2022/09/17 07:39:54;;;;;;;4.13;3.57;;;10.10;99.90;;;;;;5052857;28;20444;-66
2022/09/17 07:42:21;;;;;;;6.77;3.70;;;10.10;99.90;;;;;;5052395;28;20475;-66
2022/09/17 07:44:47;;;;;;;4.37;3.50;;;10.00;99.90;;;;;;5053130;28;20459;-66
2022/09/17 07:47:14;;;;;;;7.40;4.27;;;10.00;99.90;;;;;;5054204;28;20443;-65
2022/09/17 07:49:41;;;;;;;8.27;4.97;;;9.90;99.90;;;;;;5054958;28;20487;-65
2022/09/17 07:52:08;;;;;;;5.30;4.00;;;9.90;99.90;;;;;;5054344;28;20843;-66
2022/09/17 07:54:36;;;;;;;7.33;3.80;;;9.90;99.90;;;;;;5054096;28;20451;-65
2022/09/17 07:57:04;;;;;;;5.20;4.10;;;9.90;99.90;;;;;;5052822;28;20505;-66
2022/09/17 07:59:31;;;;;;;6.20;3.87;;;9.90;99.90;;;;;;5052481;28;20448;-65
2022/09/17 08:01:58;;;;;;;7.00;4.50;;;10.00;99.90;;;;;;5051965;28;20787;-67
2022/09/17 08:04:24;;;;;;;6.17;4.47;;;10.10;99.90;;;;;;5052343;28;20208;-66
2022/09/17 08:06:51;;;;;;;6.07;5.37;;;10.20;99.90;;;;;;5052455;28;20452;-66
2022/09/17 08:09:18;;;;;;;6.33;4.37;;;10.30;99.90;;;;;;5052436;28;20480;-66
2022/09/17 08:11:45;;;;;;;6.90;4.73;;;10.50;99.90;;;;;;5052228;28;20468;-65
2022/09/17 08:14:15;;;;;;;7.03;3.80;;;10.50;99.90;;;;;;5052054;28;20448;-67
2022/09/17 08:16:44;;;;;;;5.00;3.57;;;10.50;99.90;;;;;;5052088;28;20450;-65
2022/09/17 08:19:11;;;;;;;5.50;3.93;;;10.60;99.90;;;;;;5052140;28;20550;-67
2022/09/17 08:21:38;;;;;;;4.13;3.60;;;10.60;99.90;;;;;;5052087;28;20480;-66
2022/09/17 08:24:05;;;;;;;3.20;2.90;;;10.50;99.90;;;;;;5051874;28;20460;-65
2022/09/17 08:26:32;;;;;;;4.60;3.40;;;10.60;99.90;;;;;;5051590;28;20455;-67
2022/09/17 08:28:58;;;;;;;5.57;3.30;;;10.70;99.90;;;;;;5050629;28;20491;-66
2022/09/17 08:31:28;;;;;;;5.87;4.10;;;10.80;99.90;;;;;;5051166;28;20447;-67
2022/09/17 08:33:55;;;;;;;8.23;4.37;;;11.00;99.90;;;;;;5051143;28;20463;-67
2022/09/17 08:36:24;;;;;;;8.03;4.07;;;11.20;99.90;;;;;;5051535;28;20448;-67
2022/09/17 08:38:53;;;;;;;5.00;3.47;;;11.30;99.90;;;;;;5051558;28;20452;-66
2022/09/17 08:41:26;;;;;;;6.47;3.80;;;11.30;99.90;;;;;;5050947;28;20448;-66
2022/09/17 08:44:02;;;;;;;6.90;3.50;;;11.30;99.90;;;;;;5051184;28;20447;-67
2022/09/17 08:46:33;;;;;;;4.60;3.97;;;11.30;99.90;;;;;;5051284;28;20461;-67
2022/09/17 08:49:07;;;;;;;5.93;3.10;;;11.40;99.90;;;;;;5044138;28;20479;-67
2022/09/17 08:51:42;;;;;;;5.33;3.27;;;11.60;99.90;;;;;;5050131;28;20455;-67
2022/09/17 08:54:17;;;;;;;7.57;3.47;;;11.80;99.90;;;;;;5049988;28;20440;-67
2022/09/17 08:56:48;;;;;;;8.40;2.73;;;12.00;99.90;;;;;;5050955;28;20448;-67
2022/09/17 08:59:22;;;;;;;8.07;3.10;;;12.30;99.90;;;;;;5050691;28;20448;-67
2022/09/17 09:02:00;;;;;;;6.03;2.67;;;12.30;99.90;;;;;;5050389;28;21014;-67
2022/09/17 09:04:57;;;;;;;4.97;3.20;;;12.20;99.90;;;;;;5050953;28;20452;-67
2022/09/17 09:07:27;;;;;;;7.87;3.83;;;12.20;99.90;;;;;;5051355;28;20452;-64
2022/09/17 09:10:05;;;;;;;8.07;3.20;;;12.40;99.90;;;;;;5051011;28;21031;-65
2022/09/17 09:12:35;;;;;;;6.17;2.73;;;12.40;99.90;;;;;;5050277;28;20464;-66
2022/09/17 09:15:06;;;;;;;6.40;2.57;;;12.30;99.90;;;;;;5050276;28;20451;-65
2022/09/17 09:17:41;;;;;;;4.53;2.70;;;12.20;99.90;;;;;;5045812;28;20874;-66
2022/09/17 09:20:16;;;;;;;6.97;3.30;;;12.20;99.90;;;;;;5044152;28;20444;-66
2022/09/17 09:22:48;;;;;;;8.43;2.97;;;12.30;99.90;;;;;;5041940;28;21012;-65
2022/09/17 09:25:27;;;;;;;8.07;3.57;;;12.30;99.90;;;;;;5047692;28;20455;-66
2022/09/17 09:28:05;;;;;;;8.57;2.83;;;12.20;99.90;;;;;;5047187;28;20862;-67
2022/09/17 09:30:43;;;;;;;5.10;2.43;;;12.00;99.90;;;;;;5041459;28;20486;-66
2022/09/17 09:33:14;;;;;;;4.10;2.70;;;12.10;99.90;;;;;;5043778;28;21592;-66
2022/09/17 09:35:43;;;;;;;8.03;3.30;;;12.20;99.90;;;;;;5045653;28;20953;-66
2022/09/17 09:38:21;;;;;;;10.90;3.30;;;12.50;99.90;;;;;;5048856;28;20439;-65
2022/09/17 09:40:55;;;;;;;10.03;2.77;;;12.80;99.90;;;;;;5050208;28;20448;-66
2022/09/17 09:43:24;;;;;;;5.97;2.80;;;12.90;99.90;;;;;;5049111;28;20467;-66
2022/09/17 09:46:11;;;;;;;4.27;2.30;;;12.90;99.90;;;;;;5047001;28;20471;-65
2022/09/17 09:48:49;;;;;;;3.73;2.13;;;12.80;99.90;;;;;;5047145;28;20444;-66
2022/09/17 09:51:27;;;;;;;7.87;2.87;;;12.90;99.90;;;;;;5042660;28;20447;-67
2022/09/17 09:54:08;;;;;;;5.10;2.50;;;12.90;99.90;;;;;;5045761;28;20448;-66
2022/09/17 09:56:49;;;;;;;6.13;2.90;;;12.80;99.90;;;;;;5046480;28;20447;-66
2022/09/17 09:59:16;;;;;;;6.60;3.10;;;12.80;99.90;;;;;;5048737;28;20440;-66
2022/09/17 10:01:43;;;;;;;6.37;2.70;;;12.90;99.90;;;;;;5046147;28;20464;-65
2022/09/17 10:04:18;;;;;;;4.90;3.60;;;12.90;99.90;;;;;;5049308;28;20828;-65
2022/09/17 10:06:46;;;;;;;3.43;2.70;;;12.90;99.90;;;;;;5043046;28;20447;-65
2022/09/17 10:09:15;;;;;;;26.57;24.17;;;12.70;99.90;;;;;;5048048;28;20480;-67
2022/09/17 10:11:42;;;;;;;5.97;4.83;;;12.60;99.90;;;;;;5046349;28;20476;-66
2022/09/17 10:14:22;;;;;;;5.37;3.53;;;12.50;99.90;;;;;;5050103;28;20448;-64
2022/09/17 10:16:49;;;;;;;9.40;3.10;;;12.40;99.90;;;;;;5045249;28;20931;-66
2022/09/17 10:19:24;;;;;;;4.57;2.90;;;12.30;99.90;;;;;;5051191;28;20441;-64
2022/09/17 10:21:51;;;;;;;9.37;3.77;;;12.10;99.90;;;;;;5049274;28;20471;-65
2022/09/17 10:24:23;;;;;;;7.23;3.10;;;12.10;99.90;;;;;;5038659;28;20463;-67
2022/09/17 10:26:51;;;;;;;3.13;2.63;;;12.30;99.90;;;;;;5039073;28;21245;-64
2022/09/17 10:29:20;;;;;;;4.37;2.20;;;12.50;99.90;;;;;;5041142;28;21004;-67
2022/09/17 10:31:48;;;;;;;3.97;2.30;;;12.90;99.90;;;;;;5035980;28;20789;-64
2022/09/17 10:34:22;;;;;;;6.63;3.07;;;13.50;99.90;;;;;;5043034;28;20820;-65
2022/09/17 10:36:49;;;;;;;6.93;3.00;;;13.70;99.90;;;;;;5040988;28;21218;-65
2022/09/17 10:39:33;;;;;;;29.80;21.87;;;13.70;99.90;;;;;;5037758;28;20536;-65
2022/09/17 10:42:01;;;;;;;6.30;3.87;;;13.80;99.90;;;;;;5037041;28;20473;-64
2022/09/17 10:44:29;;;;;;;3.73;2.40;;;14.30;99.90;;;;;;5032329;28;20466;-66
2022/09/17 10:47:04;;;;;;;3.60;1.93;;;14.90;99.90;;;;;;5038589;28;20451;-65
2022/09/17 10:49:40;;;;;;;4.30;2.60;;;15.10;99.90;;;;;;5033046;28;20486;-65
2022/09/17 10:52:21;;;;;;;3.63;2.33;;;15.40;99.90;;;;;;5041154;28;20514;-67
2022/09/17 10:55:07;;;;;;;3.60;2.40;;;15.80;99.90;;;;;;5045488;28;20461;-66
2022/09/17 10:57:55;;;;;;;6.07;2.20;;;15.80;99.90;;;;;;5043474;28;20443;-65
2022/09/17 11:00:24;;;;;;;3.10;1.87;;;15.60;99.90;;;;;;5049501;28;20559;-65
2022/09/17 11:03:27;;;;;;;4.47;2.40;;;15.70;99.90;;;;;;5051351;28;20459;-64
2022/09/17 11:06:23;;;;;;;7.73;2.03;;;15.30;99.90;;;;;;5051157;28;20439;-65
2022/09/17 11:09:01;;;;;;;2.60;1.80;;;14.70;99.90;;;;;;5053949;28;20965;-65
2022/09/17 11:11:39;;;;;;;2.57;1.50;;;14.80;99.90;;;;;;5051148;28;20443;-65
2022/09/17 11:14:16;;;;;;;6.20;1.90;;;15.40;99.90;;;;;;5054622;28;20522;-65
2022/09/17 11:16:52;;;;;;;4.40;1.73;;;15.80;99.90;;;;;;5050619;28;20454;-68
2022/09/17 11:19:27;;;;;;;5.70;2.07;;;16.40;99.90;;;;;;5052572;28;20820;-66
2022/09/17 11:22:01;;;;;;;5.60;1.83;;;16.90;99.90;;;;;;5056084;28;21070;-64
2022/09/17 11:25:00;;;;;;;6.60;1.80;;;17.60;99.90;;;;;;5054950;28;21095;-64
2022/09/17 11:27:45;;;;;;;4.10;3.10;;;17.70;99.90;;;;;;5056139;28;20944;-63
2022/09/17 11:30:17;;;;;;;4.33;2.23;;;17.00;99.90;;;;;;5054943;28;20486;-65
2022/09/17 11:33:21;;;;;;;4.80;1.97;;;16.60;99.90;;;;;;5048381;28;20482;-66
2022/09/17 11:35:53;;;;;;;2.17;1.73;;;15.80;99.90;;;;;;5054028;28;20435;-66
2022/09/17 11:38:25;;;;;;;4.23;1.67;;;15.70;99.90;;;;;;5054909;28;20851;-66
2022/09/17 11:41:00;;;;;;;2.57;1.50;;;15.70;99.90;;;;;;5050813;28;20443;-65
2022/09/17 11:43:30;;;;;;;1.90;1.53;;;15.80;99.90;;;;;;5052461;28;20470;-66
2022/09/17 11:46:02;;;;;;;3.10;1.77;;;15.70;99.90;;;;;;5054383;28;20535;-64
2022/09/17 11:48:36;;;;;;;4.60;1.30;;;15.80;99.90;;;;;;5053458;28;20835;-65
2022/09/17 11:51:11;;;;;;;3.17;1.50;;;15.90;99.90;;;;;;5054315;28;20525;-66
2022/09/17 11:53:46;;;;;;;2.97;1.77;;;15.90;99.90;;;;;;5053376;28;20459;-65
2022/09/17 11:56:20;;;;;;;4.40;1.90;;;16.10;99.90;;;;;;5052886;28;20434;-66
2022/09/17 11:58:52;;;;;;;2.60;1.80;;;15.90;99.90;;;;;;5050013;28;20442;-64
2022/09/17 12:01:28;;;;;;;2.50;1.80;;;15.60;99.90;;;;;;5052646;28;20451;-67
2022/09/17 12:03:59;;;;;;;2.43;1.60;;;14.80;99.90;;;;;;5047394;28;20965;-66
2022/09/17 12:06:34;;;;;;;3.03;2.10;;;13.80;99.90;;;;;;5051204;28;20932;-67
2022/09/17 12:09:08;;;;;;;3.57;2.10;;;13.30;99.90;;;;;;5050485;28;20523;-66
2022/09/17 12:11:41;;;;;;;6.43;1.57;;;13.00;99.90;;;;;;5051455;28;20854;-64
2022/09/17 12:14:16;;;;;;;3.47;1.70;;;12.90;99.90;;;;;;5039121;28;20454;-65
2022/09/17 12:16:46;;;;;;;2.83;2.03;;;12.80;99.90;;;;;;5038478;28;20582;-65
2022/09/17 12:19:18;;;;;;;3.43;2.00;;;13.00;99.90;;;;;;5039773;28;20980;-68
2022/09/17 12:21:48;;;;;;;4.67;2.13;;;13.40;99.90;;;;;;5036646;28;20459;-67
2022/09/17 12:24:22;;;;;;;4.60;1.93;;;13.60;99.90;;;;;;5037838;28;20466;-67
2022/09/17 12:27:06;;;;;;;4.10;1.80;;;14.00;99.90;;;;;;5038929;28;21119;-68
2022/09/17 12:29:51;;;;;;;4.67;1.80;;;13.80;99.90;;;;;;5042948;28;20467;-67
2022/09/17 12:32:37;;;;;;;2.53;2.30;;;13.20;99.90;;;;;;5047933;28;20476;-65
2022/09/17 12:35:16;;;;;;;2.40;1.37;;;12.80;99.90;;;;;;5039959;28;20452;-68
2022/09/17 12:37:49;;;;;;;3.50;1.97;;;13.40;99.90;;;;;;5035822;28;20841;-67
2022/09/17 12:40:28;;;;;;;5.37;1.83;;;13.50;99.90;;;;;;5038984;28;20467;-66
2022/09/17 12:43:16;;;;;;;3.57;2.10;;;14.00;99.90;;;;;;5040160;28;21002;-67
2022/09/17 12:45:58;;;;;;;3.20;2.00;;;14.50;99.90;;;;;;5042635;28;20452;-66
2022/09/17 12:48:42;;;;;;;4.30;1.60;;;14.50;99.90;;;;;;5042319;28;20448;-67
2022/09/17 12:51:25;;;;;;;7.10;3.33;;;13.80;99.90;;;;;;5042329;28;20476;-65
2022/09/17 12:54:01;;;;;;;2.30;1.50;;;13.20;99.90;;;;;;5044500;28;20475;-67
2022/09/17 12:56:43;;;;;;;1.40;1.20;;;13.10;99.90;;;;;;5041326;28;20464;-65
2022/09/17 12:59:13;;;;;;;2.30;0.97;;;13.30;99.90;;;;;;5036841;28;20448;-65
2022/09/17 13:01:45;;;;;;;2.60;1.50;;;13.80;99.90;;;;;;5037124;28;20468;-66
2022/09/17 13:04:29;;;;;;;4.97;1.90;;;13.60;99.90;;;;;;5038820;28;20690;-65
2022/09/17 13:07:23;;;;;;;2.67;1.60;;;13.20;99.90;;;;;;5033293;28;20459;-64
2022/09/17 13:10:08;;;;;;;1.33;1.23;;;13.10;99.90;;;;;;5038210;28;20451;-66